createdAt,value
2018-11-14T00:02:35.244Z,101216.22
2018-11-14T00:05:39.780Z,101222.52
2018-11-14T00:08:44.311Z,101221.45
2018-11-14T00:11:49.090Z,101219.41
2018-11-14T00:14:53.597Z,101222.83
2018-11-14T00:17:58.291Z,101219.86
2018-11-14T00:21:02.831Z,101216.77
2018-11-14T00:24:07.563Z,101218.72
2018-11-14T00:27:12.121Z,101220.09
2018-11-14T00:30:20.286Z,101217.72
2018-11-14T00:33:24.842Z,101217.58
2018-11-14T00:36:29.338Z,101226.80
2018-11-14T00:39:33.901Z,101218.84
2018-11-14T00:42:38.516Z,101217.60
2018-11-14T00:45:43.068Z,101220.02
2018-11-14T00:48:47.628Z,101221.61
2018-11-14T00:51:52.152Z,101214.11
2018-11-14T00:54:56.738Z,101227.14
2018-11-14T00:58:01.337Z,101224.06
2018-11-14T01:01:06.250Z,101225.40
2018-11-14T01:04:10.860Z,101229.59
2018-11-14T01:07:15.359Z,101231.59
2018-11-14T01:10:21.136Z,101234.93
2018-11-14T01:13:25.714Z,101235.90
2018-11-14T01:16:30.280Z,101233.59
2018-11-14T01:19:34.852Z,101246.47
2018-11-14T01:22:39.656Z,101249.89
2018-11-14T01:25:44.216Z,101251.19
2018-11-14T01:28:48.853Z,101254.86
2018-11-14T01:31:53.637Z,101248.56
2018-11-14T01:34:58.237Z,101251.86
2018-11-14T01:38:02.789Z,101250.27
2018-11-14T01:41:07.428Z,101249.84
2018-11-14T01:44:11.953Z,101252.94
2018-11-14T01:47:16.504Z,101248.30
2018-11-14T01:50:21.080Z,101246.63
2018-11-14T01:53:25.565Z,101244.67
2018-11-14T01:56:30.100Z,101250.98
2018-11-14T01:59:34.610Z,101243.75
2018-11-14T02:02:39.164Z,101241.45
2018-11-14T02:05:43.808Z,101232.14
2018-11-14T02:08:48.315Z,101237.44
2018-11-14T02:11:52.951Z,101231.09
2018-11-14T02:14:57.657Z,101225.70
2018-11-14T02:18:02.223Z,101220.72
2018-11-14T02:21:06.787Z,101226.95
2018-11-14T02:24:11.302Z,101218.89
2018-11-14T02:27:15.880Z,101221.98
2018-11-14T02:30:22.099Z,101217.31
2018-11-14T02:33:26.547Z,101221.33
2018-11-14T02:36:31.088Z,101222.45
2018-11-14T02:39:35.681Z,101216.19
2018-11-14T02:42:40.386Z,101216.69
2018-11-14T02:45:44.889Z,101223.61
2018-11-14T02:48:49.457Z,101221.41
2018-11-14T02:51:54.029Z,101220.86
2018-11-14T02:54:58.636Z,101230.63
2018-11-14T02:58:03.199Z,101231.17
2018-11-14T03:01:08.184Z,101231.75
2018-11-14T03:04:12.713Z,101227.74
2018-11-14T03:07:17.256Z,101220.92
2018-11-14T03:10:22.407Z,101219.47
2018-11-14T03:13:26.932Z,101222.48
2018-11-14T03:16:31.540Z,101226.08
2018-11-14T03:19:36.416Z,101214.24
2018-11-14T03:22:40.956Z,101209.69
2018-11-14T03:25:45.469Z,101208.55
2018-11-14T03:28:49.898Z,101212.92
2018-11-14T03:31:54.608Z,101215.23
2018-11-14T03:34:59.178Z,101215.71
2018-11-14T03:38:03.691Z,101212.48
2018-11-14T03:41:08.292Z,101218.46
2018-11-14T03:44:12.943Z,101220.37
2018-11-14T03:47:17.494Z,101220.58
2018-11-14T03:50:32.210Z,101220.30
2018-11-14T03:53:36.766Z,101222.05
2018-11-14T03:56:41.402Z,101219.87
2018-11-14T03:59:46.018Z,101221.61
2018-11-14T04:02:50.712Z,101219.63
2018-11-14T04:05:55.276Z,101225.70
2018-11-14T04:08:59.831Z,101224.84
2018-11-14T04:12:04.405Z,101223.22
2018-11-14T04:15:10.715Z,101221.73
2018-11-14T04:18:15.248Z,101221.33
2018-11-14T04:21:19.835Z,101213.11
2018-11-14T04:24:24.374Z,101218.95
2018-11-14T04:27:28.966Z,101213.61
2018-11-14T04:30:33.656Z,101210.81
2018-11-14T04:33:38.172Z,101211.14
2018-11-14T04:36:42.779Z,101215.05
2018-11-14T04:39:47.322Z,101209.90
2018-11-14T04:42:52.001Z,101208.83
2018-11-14T04:45:56.522Z,101200.57
2018-11-14T04:49:01.125Z,101199.41
2018-11-14T04:52:06.074Z,101207.31
2018-11-14T04:55:12.701Z,101210.75
2018-11-14T04:58:17.213Z,101210.04
2018-11-14T05:01:21.807Z,101212.36
2018-11-14T05:04:26.412Z,101214.19
2018-11-14T05:07:31.026Z,101206.46
2018-11-14T05:10:35.635Z,101197.31
2018-11-14T05:13:40.148Z,101198.22
2018-11-14T05:16:44.753Z,101190.64
2018-11-14T05:19:49.385Z,101194.30
2018-11-14T05:22:54.251Z,101195.07
2018-11-14T05:25:58.892Z,101193.82
2018-11-14T05:29:03.553Z,101192.27
2018-11-14T05:32:08.176Z,101192.06
2018-11-14T05:35:13.472Z,101191.77
2018-11-14T05:38:17.992Z,101187.13
2018-11-14T05:41:22.627Z,101173.84
2018-11-14T05:44:27.237Z,101174.62
2018-11-14T05:47:31.994Z,101176.44
2018-11-14T05:50:36.487Z,101183.83
2018-11-14T05:53:41.006Z,101182.58
2018-11-14T05:56:45.513Z,101179.75
2018-11-14T05:59:49.986Z,101173.70
2018-11-14T06:02:54.603Z,101169.63
2018-11-14T06:05:59.078Z,101174.83
2018-11-14T06:09:04.417Z,101179.39
2018-11-14T06:12:09.031Z,101176.66
2018-11-14T06:15:18.395Z,101172.45
2018-11-14T06:18:22.998Z,101183.00
2018-11-14T06:21:27.613Z,101181.65
2018-11-14T06:24:32.171Z,101188.88
2018-11-14T06:27:36.754Z,101198.03
2018-11-14T06:30:42.286Z,101200.27
2018-11-14T06:33:46.867Z,101197.45
2018-11-14T06:36:51.433Z,101193.23
2018-11-14T06:39:56.035Z,101196.05
2018-11-14T06:43:00.568Z,101202.05
2018-11-14T06:46:05.215Z,101199.29
2018-11-14T06:49:09.739Z,101202.24
2018-11-14T06:52:14.314Z,101203.28
2018-11-14T06:55:19.669Z,101212.42
2018-11-14T06:58:24.286Z,101207.36
2018-11-14T07:01:28.881Z,101215.23
2018-11-14T07:04:33.445Z,101223.53
2018-11-14T07:07:37.976Z,101221.98
2018-11-14T07:10:42.568Z,101216.91
2018-11-14T07:13:47.179Z,101218.31
2018-11-14T07:16:51.860Z,101216.28
2018-11-14T07:19:56.442Z,101222.47
2018-11-14T07:23:01.028Z,101223.47
2018-11-14T07:26:05.972Z,101231.76
2018-11-14T07:29:10.596Z,101232.45
2018-11-14T07:32:15.274Z,101236.10
2018-11-14T07:35:20.180Z,101228.94
2018-11-14T07:38:44.428Z,101233.58
2018-11-14T07:41:48.958Z,101227.24
2018-11-14T07:44:53.529Z,101218.97
2018-11-14T07:47:58.082Z,101219.25
2018-11-14T07:51:02.902Z,101220.44
2018-11-14T07:54:07.651Z,101212.47
2018-11-14T07:57:12.279Z,101208.67
2018-11-14T08:00:17.758Z,101203.36
2018-11-14T08:03:22.192Z,101211.84
2018-11-14T08:06:26.806Z,101212.42
2018-11-14T08:09:32.212Z,101227.66
2018-11-14T08:12:36.817Z,101224.94
2018-11-14T08:15:41.397Z,101221.06
2018-11-14T08:18:46.021Z,101214.14
2018-11-14T08:21:50.607Z,101220.48
2018-11-14T08:24:55.300Z,101215.90
2018-11-14T08:27:59.923Z,101223.58
2018-11-14T08:31:04.527Z,101230.67
2018-11-14T08:34:09.219Z,101235.48
2018-11-14T08:37:13.732Z,101237.53
2018-11-14T08:40:18.251Z,101236.65
2018-11-14T08:43:22.875Z,101225.70
2018-11-14T08:46:27.388Z,101224.70
2018-11-14T08:49:31.942Z,101222.73
2018-11-14T08:52:36.585Z,101226.42
2018-11-14T08:55:41.126Z,101222.53
2018-11-14T08:58:45.735Z,101225.95
2018-11-14T09:01:50.247Z,101228.75
2018-11-14T09:04:54.810Z,101229.82
2018-11-14T09:07:59.443Z,101221.83
2018-11-14T09:11:04.146Z,101223.47
2018-11-14T09:14:08.639Z,101217.81
2018-11-14T09:17:13.179Z,101211.95
2018-11-14T09:20:19.369Z,101209.98
2018-11-14T09:23:23.890Z,101219.34
2018-11-14T09:26:35.028Z,101222.70
2018-11-14T09:29:39.639Z,101224.64
2018-11-14T09:32:44.292Z,101233.23
2018-11-14T09:35:48.873Z,101230.73
2018-11-14T09:38:53.367Z,101232.34
2018-11-14T09:41:57.854Z,101228.95
2018-11-14T09:45:02.541Z,101230.30
2018-11-14T09:48:07.240Z,101229.70
2018-11-14T09:51:11.738Z,101230.52
2018-11-14T09:54:16.345Z,101229.66
2018-11-14T09:57:20.823Z,101226.27
2018-11-14T10:00:26.879Z,101227.59
2018-11-14T10:03:31.528Z,101226.42
2018-11-14T10:06:35.989Z,101220.58
2018-11-14T10:09:40.738Z,101222.70
2018-11-14T10:12:45.249Z,101220.41
2018-11-14T10:15:49.879Z,101221.52
2018-11-14T10:18:54.417Z,101214.31
2018-11-14T10:21:58.993Z,101216.28
2018-11-14T10:25:03.743Z,101211.16
2018-11-14T10:28:08.311Z,101197.74
2018-11-14T10:31:12.846Z,101195.94
2018-11-14T10:34:17.412Z,101192.19
2018-11-14T10:37:21.994Z,101192.62
2018-11-14T10:40:27.878Z,101193.99
2018-11-14T10:43:32.336Z,101193.52
2018-11-14T10:46:36.832Z,101191.48
2018-11-14T10:49:41.457Z,101189.61
2018-11-14T10:52:45.973Z,101192.48
2018-11-14T10:55:50.641Z,101190.19
2018-11-14T10:58:55.253Z,101188.83
2018-11-14T11:02:05.051Z,101192.92
2018-11-14T11:05:14.600Z,101193.09
2018-11-14T11:08:24.842Z,101201.03
2018-11-14T11:11:29.866Z,101197.92
2018-11-14T11:14:41.388Z,101201.58
2018-11-14T11:17:51.199Z,101197.34
2018-11-14T11:20:55.957Z,101190.66
2018-11-14T11:24:00.472Z,101188.83
2018-11-14T11:27:05.519Z,101187.41
2018-11-14T11:30:11.367Z,101184.39
2018-11-14T11:33:16.104Z,101181.08
2018-11-14T11:36:20.646Z,101172.19
2018-11-14T11:39:25.260Z,101177.95
2018-11-14T11:42:29.829Z,101185.87
2018-11-14T11:45:35.074Z,101186.37
2018-11-14T11:48:40.667Z,101180.05
2018-11-14T11:51:45.244Z,101181.27
2018-11-14T11:54:49.743Z,101183.78
2018-11-14T11:57:54.640Z,101187.59
2018-11-14T12:00:59.170Z,101176.09
2018-11-14T12:04:03.715Z,101169.15
2018-11-14T12:07:08.380Z,101166.35
2018-11-14T12:10:14.332Z,101161.61
2018-11-14T12:13:18.903Z,101155.87
2018-11-14T12:16:23.519Z,101150.97
2018-11-14T12:19:28.209Z,101152.42
2018-11-14T12:22:32.753Z,101146.50
2018-11-14T12:25:37.317Z,101145.86
2018-11-14T12:28:41.824Z,101137.55
2018-11-14T12:31:46.361Z,101131.73
2018-11-14T12:34:51.113Z,101127.30
2018-11-14T12:37:55.663Z,101130.42
2018-11-14T12:41:00.146Z,101130.30
2018-11-14T12:44:04.853Z,101132.97
2018-11-14T12:47:09.495Z,101133.02
2018-11-14T12:50:14.654Z,101123.48
2018-11-14T12:53:19.199Z,101119.06
2018-11-14T12:56:23.909Z,101118.00
2018-11-14T12:59:28.482Z,101114.63
2018-11-14T13:02:33.052Z,101114.75
2018-11-14T13:05:37.663Z,101114.63
2018-11-14T13:08:42.222Z,101122.99
2018-11-14T13:11:46.825Z,101128.02
2018-11-14T13:14:51.464Z,101124.79
2018-11-14T13:17:55.927Z,101129.33
2018-11-14T13:21:00.615Z,101118.60
2018-11-14T13:24:05.346Z,101119.75
2018-11-14T13:27:09.937Z,101116.52
2018-11-14T13:30:16.700Z,101120.03
2018-11-14T13:33:21.322Z,101120.35
2018-11-14T13:36:25.868Z,101119.98
2018-11-14T13:39:30.415Z,101119.67
2018-11-14T13:42:35.028Z,101116.05
2018-11-14T13:45:39.622Z,101113.66
2018-11-14T13:48:44.252Z,101109.62
2018-11-14T13:51:48.987Z,101101.92
2018-11-14T13:54:53.686Z,101098.95
2018-11-14T13:57:58.244Z,101099.05
2018-11-14T14:01:02.868Z,101108.53
2018-11-14T14:04:07.400Z,101108.43
2018-11-14T14:07:12.060Z,101110.00
2018-11-14T14:10:17.505Z,101107.78
2018-11-14T14:13:22.073Z,101102.97
2018-11-14T14:16:27.511Z,101100.66
2018-11-14T14:19:32.059Z,101104.53
2018-11-14T14:22:36.732Z,101091.63
2018-11-14T14:25:41.280Z,101086.59
2018-11-14T14:28:45.882Z,101087.57
2018-11-14T14:31:50.428Z,101084.16
2018-11-14T14:34:55.245Z,101076.84
2018-11-14T14:37:59.784Z,101066.45
2018-11-14T14:41:04.479Z,101065.46
2018-11-14T14:44:09.031Z,101063.47
2018-11-14T14:47:13.707Z,101061.44
2018-11-14T14:50:19.181Z,101066.12
2018-11-14T14:53:23.798Z,101065.46
2018-11-14T14:56:28.506Z,101068.14
2018-11-14T14:59:33.094Z,101070.50
2018-11-14T15:02:37.903Z,101069.88
2018-11-14T15:05:42.526Z,101077.20
2018-11-14T15:08:47.084Z,101073.57
2018-11-14T15:11:51.678Z,101077.27
2018-11-14T15:14:56.343Z,101069.34
2018-11-14T15:18:00.952Z,101081.11
2018-11-14T15:21:06.862Z,101080.28
2018-11-14T15:24:11.451Z,101076.91
2018-11-14T15:27:16.081Z,101071.55
2018-11-14T15:30:24.086Z,101071.37
2018-11-14T15:33:30.160Z,101072.88
2018-11-14T15:36:34.734Z,101070.38
2018-11-14T15:39:39.343Z,101074.25
2018-11-14T15:42:44.134Z,101074.61
2018-11-14T15:45:48.614Z,101070.05
2018-11-14T15:48:53.280Z,101065.90
2018-11-14T15:51:57.867Z,101073.63
2018-11-14T15:55:02.538Z,101067.93
2018-11-14T15:58:07.607Z,101069.95
2018-11-14T16:01:12.302Z,101070.08
2018-11-14T16:04:16.971Z,101071.42
2018-11-14T16:07:24.454Z,101063.53
2018-11-14T16:10:29.877Z,101061.02
2018-11-14T16:13:34.443Z,101063.70
2018-11-14T16:16:39.147Z,101062.88
2018-11-14T16:19:43.867Z,101062.86
2018-11-14T16:22:48.511Z,101065.59
2018-11-14T16:25:53.091Z,101066.80
2018-11-14T16:28:57.655Z,101068.31
2018-11-14T16:32:02.296Z,101063.41
2018-11-14T16:35:06.987Z,101065.58
2018-11-14T16:38:11.905Z,101069.58
2018-11-14T16:41:16.443Z,101059.52
2018-11-14T16:44:21.085Z,101070.44
2018-11-14T16:47:25.822Z,101065.57
2018-11-14T16:50:31.076Z,101061.88
2018-11-14T16:53:35.742Z,101062.56
2018-11-14T16:56:40.304Z,101062.20
2018-11-14T16:59:45.013Z,101055.84
2018-11-14T17:02:49.650Z,101061.04
2018-11-14T17:05:54.310Z,101052.48
2018-11-14T17:08:58.925Z,101045.47
2018-11-14T17:12:03.477Z,101046.15
2018-11-14T17:15:10.832Z,101047.13
2018-11-14T17:18:15.487Z,101043.09
2018-11-14T17:21:20.204Z,101041.75
2018-11-14T17:24:24.857Z,101042.79
2018-11-14T17:27:29.552Z,101044.97
2018-11-14T17:30:34.344Z,101043.63
2018-11-14T17:33:38.919Z,101045.95
2018-11-14T17:36:43.606Z,101051.84
2018-11-14T17:39:48.228Z,101045.64
2018-11-14T17:42:53.557Z,101046.45
2018-11-14T17:45:58.086Z,101040.43
2018-11-14T17:49:02.888Z,101040.09
2018-11-14T17:52:07.514Z,101035.72
2018-11-14T17:55:13.566Z,101026.19
2018-11-14T17:58:18.056Z,101028.36
2018-11-14T18:01:22.744Z,101033.05
2018-11-14T18:04:27.295Z,101030.37
2018-11-14T18:07:31.893Z,101030.02
2018-11-14T18:10:37.272Z,101034.54
2018-11-14T18:13:41.920Z,101034.89
2018-11-14T18:16:46.563Z,101040.39
2018-11-14T18:19:51.149Z,101037.73
2018-11-14T18:22:56.166Z,101045.78
2018-11-14T18:26:00.945Z,101035.70
2018-11-14T18:29:05.537Z,101040.72
2018-11-14T18:32:11.484Z,101037.56
2018-11-14T18:35:17.164Z,101036.05
2018-11-14T18:38:21.752Z,101036.36
2018-11-14T18:41:26.392Z,101028.47
2018-11-14T18:44:31.019Z,101029.99
2018-11-14T18:47:35.698Z,101029.66
2018-11-14T18:50:40.311Z,101027.99
2018-11-14T18:53:44.810Z,101028.31
2018-11-14T18:56:49.715Z,101026.63
2018-11-14T18:59:54.270Z,101029.16
2018-11-14T19:02:59.647Z,101023.30
2018-11-14T19:06:04.386Z,101034.34
2018-11-14T19:09:10.034Z,101036.05
2018-11-14T19:12:14.790Z,101033.70
2018-11-14T19:15:20.816Z,101040.39
2018-11-14T19:18:25.363Z,101033.18
2018-11-14T19:21:30.170Z,101028.48
2018-11-14T19:24:34.818Z,101030.47
2018-11-14T19:27:39.273Z,101027.28
2018-11-14T19:30:44.066Z,101034.65
2018-11-14T19:33:48.621Z,101024.25
2018-11-14T19:36:53.260Z,101022.88
2018-11-14T19:39:57.916Z,101022.43
2018-11-14T19:43:03.867Z,101026.09
2018-11-14T19:46:09.493Z,101024.76
2018-11-14T19:49:14.201Z,101021.92
2018-11-14T19:52:18.875Z,101017.84
2018-11-14T19:55:24.753Z,101018.86
2018-11-14T19:58:29.448Z,101019.72
2018-11-14T20:01:34.027Z,101016.18
2018-11-14T20:04:38.743Z,101009.15
2018-11-14T20:07:43.941Z,101018.86
2018-11-14T20:10:48.825Z,101013.80
2018-11-14T20:13:53.517Z,101016.16
2018-11-14T20:16:58.330Z,101011.77
2018-11-14T20:20:03.058Z,101010.61
2018-11-14T20:23:07.784Z,101009.80
2018-11-14T20:26:12.588Z,101018.50
2018-11-14T20:29:17.401Z,101011.09
2018-11-14T20:32:22.246Z,101015.44
2018-11-14T20:35:27.398Z,101016.13
2018-11-14T20:38:32.091Z,101011.05
2018-11-14T20:41:36.844Z,101007.53
2018-11-14T20:44:41.508Z,101009.02
2018-11-14T20:47:46.167Z,101012.03
2018-11-14T20:50:50.847Z,101012.03
2018-11-14T20:53:55.618Z,101015.22
2018-11-14T20:57:00.350Z,101009.02
2018-11-14T21:00:05.843Z,101013.01
2018-11-14T21:03:10.933Z,101013.00
2018-11-14T21:06:15.527Z,101018.84
2018-11-14T21:09:20.233Z,101017.17
2018-11-14T21:12:24.945Z,101020.69
2018-11-14T21:15:31.203Z,101020.86
2018-11-14T21:18:35.908Z,101013.62
2018-11-14T21:21:40.613Z,101016.52
2018-11-14T21:24:45.316Z,101018.19
2018-11-14T21:27:50.543Z,101018.69
2018-11-14T21:30:55.280Z,101016.98
2018-11-14T21:33:59.780Z,101015.69
2018-11-14T21:37:04.361Z,101005.30
2018-11-14T21:40:10.354Z,101007.97
2018-11-14T21:43:14.975Z,101010.33
2018-11-14T21:46:19.670Z,101004.46
2018-11-14T21:49:29.187Z,101000.62
2018-11-14T21:52:33.778Z,101000.98
2018-11-14T21:55:38.456Z,101000.15
2018-11-14T21:58:43.696Z,100995.63
2018-11-14T22:01:48.463Z,100991.56
2018-11-14T22:04:53.082Z,100983.20
2018-11-14T22:07:58.014Z,100985.91
2018-11-14T22:11:02.704Z,100984.75
2018-11-14T22:14:07.237Z,100985.91
2018-11-14T22:17:11.981Z,100984.90
2018-11-14T22:20:17.980Z,100984.54
2018-11-14T22:23:22.728Z,100989.90
2018-11-14T22:26:27.359Z,100987.22
2018-11-14T22:29:31.898Z,100987.25
2018-11-14T22:32:36.549Z,100990.55
2018-11-14T22:35:41.079Z,100988.56
2018-11-14T22:38:45.798Z,100986.53
2018-11-14T22:41:50.467Z,100987.22
2018-11-14T22:44:55.065Z,100992.91
2018-11-14T22:47:59.806Z,100990.41
2018-11-14T22:51:04.414Z,100987.40
2018-11-14T22:54:09.044Z,100990.73
2018-11-14T22:57:13.651Z,100990.08
2018-11-14T23:00:28.621Z,100994.58
2018-11-14T23:03:33.152Z,100994.90
2018-11-14T23:06:37.663Z,100989.39
2018-11-14T23:09:42.453Z,100990.59
2018-11-14T23:12:47.315Z,100992.25
2018-11-14T23:15:51.893Z,100988.27
2018-11-14T23:18:56.467Z,100987.61
2018-11-14T23:22:01.111Z,100986.92
2018-11-14T23:25:05.930Z,100987.58
2018-11-14T23:28:10.563Z,100979.18
2018-11-14T23:31:15.152Z,100984.54
2018-11-14T23:34:19.967Z,100983.89
2018-11-14T23:37:24.577Z,100978.53
2018-11-14T23:40:29.482Z,100984.25
2018-11-14T23:43:34.253Z,100981.09
2018-11-14T23:46:38.904Z,100978.91
2018-11-14T23:49:43.505Z,100975.19
2018-11-14T23:52:49.186Z,100973.84
2018-11-14T23:55:53.669Z,100974.20
2018-11-14T23:58:58.303Z,100980.88
